Terminal Aerodrome Forecast
Issued by NWS

Home | Current Version | Previous Version | Text Only | Print | Product List | Glossary On
Versions: 1 2 3 4 5 6 7 8 9 10 11 12 13
000
FTUS41 KBTV 180500
TAFMSS
TAF
KMSS 180524Z 1806/1906 29004KT P6SM SCT025 OVC060
      TEMPO 1807/1811 BKN025 OVC050
     FM181100 01005KT P6SM OVC050
     FM181700 01007KT P6SM FEW250
     FM190300 VRB03KT P6SM SKC=

USA.gov is the U.S. government's official web portal to all federal, state and local government web resources and services.